sensor_id;sensor_type;location;lat;lon;timestamp;temperature;humidity
75961;SHT30;64644;48.914;2.254;2022-12-05T00:01:46;6.63;72.13
75961;SHT30;64644;48.914;2.254;2022-12-05T00:04:13;6.66;72.18
75961;SHT30;64644;48.914;2.254;2022-12-05T00:06:40;6.63;72.31
75961;SHT30;64644;48.914;2.254;2022-12-05T00:09:06;6.66;72.24
75961;SHT30;64644;48.914;2.254;2022-12-05T00:11:35;6.66;72.01
75961;SHT30;64644;48.914;2.254;2022-12-05T00:14:02;6.64;72.05
75961;SHT30;64644;48.914;2.254;2022-12-05T00:16:29;6.64;71.89
75961;SHT30;64644;48.914;2.254;2022-12-05T00:18:55;6.61;72.00
75961;SHT30;64644;48.914;2.254;2022-12-05T00:21:26;6.60;72.19
75961;SHT30;64644;48.914;2.254;2022-12-05T00:23:53;6.61;72.19
75961;SHT30;64644;48.914;2.254;2022-12-05T00:26:19;6.61;72.18
75961;SHT30;64644;48.914;2.254;2022-12-05T00:28:45;6.66;72.10
75961;SHT30;64644;48.914;2.254;2022-12-05T00:31:13;6.64;72.09
75961;SHT30;64644;48.914;2.254;2022-12-05T00:33:40;6.63;72.11
75961;SHT30;64644;48.914;2.254;2022-12-05T00:36:18;6.66;72.15
75961;SHT30;64644;48.914;2.254;2022-12-05T00:38:44;6.64;72.07
75961;SHT30;64644;48.914;2.254;2022-12-05T00:41:12;6.64;71.92
75961;SHT30;64644;48.914;2.254;2022-12-05T00:43:38;6.63;71.91
75961;SHT30;64644;48.914;2.254;2022-12-05T00:46:15;6.61;72.05
75961;SHT30;64644;48.914;2.254;2022-12-05T00:48:41;6.60;72.16
75961;SHT30;64644;48.914;2.254;2022-12-05T00:51:21;6.57;71.80
75961;SHT30;64644;48.914;2.254;2022-12-05T00:53:47;6.57;71.60
75961;SHT30;64644;48.914;2.254;2022-12-05T00:56:19;6.54;71.86
75961;SHT30;64644;48.914;2.254;2022-12-05T00:58:46;6.53;71.94
75961;SHT30;64644;48.914;2.254;2022-12-05T01:01:19;6.54;72.00
75961;SHT30;64644;48.914;2.254;2022-12-05T01:03:46;6.53;72.05
75961;SHT30;64644;48.914;2.254;2022-12-05T01:06:13;6.51;72.08
75961;SHT30;64644;48.914;2.254;2022-12-05T01:08:40;6.50;72.24
75961;SHT30;64644;48.914;2.254;2022-12-05T01:11:06;6.47;72.31
75961;SHT30;64644;48.914;2.254;2022-12-05T01:13:33;6.50;72.15
75961;SHT30;64644;48.914;2.254;2022-12-05T01:15:58;6.47;72.19
75961;SHT30;64644;48.914;2.254;2022-12-05T01:18:24;6.47;72.41
75961;SHT30;64644;48.914;2.254;2022-12-05T01:20:50;6.46;72.30
75961;SHT30;64644;48.914;2.254;2022-12-05T01:23:16;6.44;72.33
75961;SHT30;64644;48.914;2.254;2022-12-05T01:25:43;6.43;72.36
75961;SHT30;64644;48.914;2.254;2022-12-05T01:28:09;6.42;72.32
75961;SHT30;64644;48.914;2.254;2022-12-05T01:30:46;6.40;72.38
75961;SHT30;64644;48.914;2.254;2022-12-05T01:33:12;6.39;72.47
75961;SHT30;64644;48.914;2.254;2022-12-05T01:35:39;6.42;72.62
75961;SHT30;64644;48.914;2.254;2022-12-05T01:38:06;6.46;72.45
75961;SHT30;64644;48.914;2.254;2022-12-05T01:40:33;6.43;72.55
75961;SHT30;64644;48.914;2.254;2022-12-05T01:43:00;6.42;72.54
75961;SHT30;64644;48.914;2.254;2022-12-05T01:48:01;6.43;72.90
75961;SHT30;64644;48.914;2.254;2022-12-05T01:50:28;6.44;72.68
75961;SHT30;64644;48.914;2.254;2022-12-05T01:52:53;6.43;72.69
75961;SHT30;64644;48.914;2.254;2022-12-05T01:55:19;6.44;72.67
75961;SHT30;64644;48.914;2.254;2022-12-05T01:57:46;6.43;72.79
75961;SHT30;64644;48.914;2.254;2022-12-05T02:00:16;6.46;72.61
75961;SHT30;64644;48.914;2.254;2022-12-05T02:02:56;6.42;72.54
75961;SHT30;64644;48.914;2.254;2022-12-05T02:05:27;6.40;72.55
75961;SHT30;64644;48.914;2.254;2022-12-05T02:07:53;6.37;72.67
75961;SHT30;64644;48.914;2.254;2022-12-05T02:10:19;6.37;72.72
75961;SHT30;64644;48.914;2.254;2022-12-05T02:12:45;6.39;72.81
75961;SHT30;64644;48.914;2.254;2022-12-05T02:18:40;6.44;72.74
75961;SHT30;64644;48.914;2.254;2022-12-05T02:29:40;6.42;72.89
75961;SHT30;64644;48.914;2.254;2022-12-05T02:32:09;6.36;72.76
75961;SHT30;64644;48.914;2.254;2022-12-05T02:35:02;6.33;72.80
75961;SHT30;64644;48.914;2.254;2022-12-05T02:37:41;6.33;72.92
75961;SHT30;64644;48.914;2.254;2022-12-05T02:40:22;6.33;72.86
75961;SHT30;64644;48.914;2.254;2022-12-05T02:42:50;6.30;72.68
75961;SHT30;64644;48.914;2.254;2022-12-05T02:45:19;6.23;72.75
75961;SHT30;64644;48.914;2.254;2022-12-05T02:47:50;6.18;72.55
75961;SHT30;64644;48.914;2.254;2022-12-05T02:50:19;6.15;72.79
75961;SHT30;64644;48.914;2.254;2022-12-05T02:52:48;6.11;72.94
75961;SHT30;64644;48.914;2.254;2022-12-05T02:55:16;6.15;72.97
75961;SHT30;64644;48.914;2.254;2022-12-05T02:57:50;6.12;73.01
75961;SHT30;64644;48.914;2.254;2022-12-05T03:00:17;6.12;73.10
75961;SHT30;64644;48.914;2.254;2022-12-05T03:02:43;6.12;72.89
75961;SHT30;64644;48.914;2.254;2022-12-05T03:07:37;6.12;73.17
75961;SHT30;64644;48.914;2.254;2022-12-05T03:10:06;6.14;73.24
75961;SHT30;64644;48.914;2.254;2022-12-05T03:12:40;6.14;72.85
75961;SHT30;64644;48.914;2.254;2022-12-05T03:15:16;6.14;73.22
75961;SHT30;64644;48.914;2.254;2022-12-05T03:17:53;6.16;73.09
75961;SHT30;64644;48.914;2.254;2022-12-05T03:20:27;6.15;73.28
75961;SHT30;64644;48.914;2.254;2022-12-05T03:23:16;6.15;73.15
75961;SHT30;64644;48.914;2.254;2022-12-05T03:26:03;6.12;73.13
75961;SHT30;64644;48.914;2.254;2022-12-05T03:29:18;6.12;73.33
75961;SHT30;64644;48.914;2.254;2022-12-05T03:31:53;6.15;73.25
75961;SHT30;64644;48.914;2.254;2022-12-05T03:37:20;6.14;73.24
75961;SHT30;64644;48.914;2.254;2022-12-05T03:39:48;6.11;73.13
75961;SHT30;64644;48.914;2.254;2022-12-05T03:42:27;6.09;73.16
75961;SHT30;64644;48.914;2.254;2022-12-05T03:45:09;6.14;73.16
75961;SHT30;64644;48.914;2.254;2022-12-05T03:48:29;6.11;73.19
75961;SHT30;64644;48.914;2.254;2022-12-05T03:50:57;6.11;73.16
75961;SHT30;64644;48.914;2.254;2022-12-05T03:53:26;6.11;73.17
75961;SHT30;64644;48.914;2.254;2022-12-05T03:56:03;6.09;73.24
75961;SHT30;64644;48.914;2.254;2022-12-05T03:58:40;6.06;73.30
75961;SHT30;64644;48.914;2.254;2022-12-05T04:01:09;6.06;73.12
75961;SHT30;64644;48.914;2.254;2022-12-05T04:03:41;6.04;73.25
75961;SHT30;64644;48.914;2.254;2022-12-05T04:06:13;6.04;73.24
75961;SHT30;64644;48.914;2.254;2022-12-05T04:08:52;6.05;73.16
75961;SHT30;64644;48.914;2.254;2022-12-05T04:11:22;6.01;73.03
75961;SHT30;64644;48.914;2.254;2022-12-05T04:13:56;5.98;73.49
75961;SHT30;64644;48.914;2.254;2022-12-05T04:16:30;5.98;73.32
75961;SHT30;64644;48.914;2.254;2022-12-05T04:19:22;5.97;73.31
75961;SHT30;64644;48.914;2.254;2022-12-05T04:21:54;5.98;73.41
75961;SHT30;64644;48.914;2.254;2022-12-05T04:24:29;5.99;73.66
75961;SHT30;64644;48.914;2.254;2022-12-05T04:30:45;6.05;73.72
75961;SHT30;64644;48.914;2.254;2022-12-05T04:33:19;6.06;73.55
75961;SHT30;64644;48.914;2.254;2022-12-05T04:38:45;6.08;73.38
75961;SHT30;64644;48.914;2.254;2022-12-05T04:41:17;6.08;73.39
75961;SHT30;64644;48.914;2.254;2022-12-05T04:43:46;6.05;73.48
75961;SHT30;64644;48.914;2.254;2022-12-05T04:46:15;6.05;73.21
75961;SHT30;64644;48.914;2.254;2022-12-05T04:48:45;6.01;73.43
75961;SHT30;64644;48.914;2.254;2022-12-05T04:51:20;6.01;73.40
75961;SHT30;64644;48.914;2.254;2022-12-05T04:53:52;6.02;73.17
75961;SHT30;64644;48.914;2.254;2022-12-05T04:56:21;6.01;73.56
75961;SHT30;64644;48.914;2.254;2022-12-05T04:58:48;6.01;73.22
75961;SHT30;64644;48.914;2.254;2022-12-05T05:01:18;6.01;73.27
75961;SHT30;64644;48.914;2.254;2022-12-05T05:03:53;5.95;73.42
75961;SHT30;64644;48.914;2.254;2022-12-05T05:06:18;5.97;73.34
75961;SHT30;64644;48.914;2.254;2022-12-05T05:08:51;5.97;73.19
75961;SHT30;64644;48.914;2.254;2022-12-05T05:11:23;5.97;73.38
75961;SHT30;64644;48.914;2.254;2022-12-05T05:13:49;5.95;73.47
75961;SHT30;64644;48.914;2.254;2022-12-05T05:16:20;5.98;73.43
75961;SHT30;64644;48.914;2.254;2022-12-05T05:18:46;5.98;73.42
75961;SHT30;64644;48.914;2.254;2022-12-05T05:21:28;5.97;73.39
75961;SHT30;64644;48.914;2.254;2022-12-05T05:23:54;5.99;73.42
75961;SHT30;64644;48.914;2.254;2022-12-05T05:26:21;5.97;73.47
75961;SHT30;64644;48.914;2.254;2022-12-05T05:28:47;5.99;73.57
75961;SHT30;64644;48.914;2.254;2022-12-05T05:31:13;5.97;73.37
75961;SHT30;64644;48.914;2.254;2022-12-05T05:33:39;5.97;73.53
75961;SHT30;64644;48.914;2.254;2022-12-05T05:36:07;5.98;73.50
75961;SHT30;64644;48.914;2.254;2022-12-05T05:38:42;5.94;73.44
75961;SHT30;64644;48.914;2.254;2022-12-05T05:41:25;5.97;73.35
75961;SHT30;64644;48.914;2.254;2022-12-05T05:43:51;5.98;73.54
75961;SHT30;64644;48.914;2.254;2022-12-05T05:46:18;5.95;73.60
75961;SHT30;64644;48.914;2.254;2022-12-05T05:48:44;5.94;73.63
75961;SHT30;64644;48.914;2.254;2022-12-05T05:51:12;5.95;73.64
75961;SHT30;64644;48.914;2.254;2022-12-05T05:53:38;5.91;73.51
75961;SHT30;64644;48.914;2.254;2022-12-05T05:56:06;5.90;73.42
75961;SHT30;64644;48.914;2.254;2022-12-05T05:58:32;5.87;73.77
75961;SHT30;64644;48.914;2.254;2022-12-05T06:03:33;5.87;73.63
75961;SHT30;64644;48.914;2.254;2022-12-05T06:06:00;5.86;73.53
75961;SHT30;64644;48.914;2.254;2022-12-05T06:08:28;5.91;73.68
75961;SHT30;64644;48.914;2.254;2022-12-05T06:10:54;5.90;73.51
75961;SHT30;64644;48.914;2.254;2022-12-05T06:13:19;5.88;73.91
75961;SHT30;64644;48.914;2.254;2022-12-05T06:15:45;5.88;73.64
75961;SHT30;64644;48.914;2.254;2022-12-05T06:18:10;5.94;73.44
75961;SHT30;64644;48.914;2.254;2022-12-05T06:20:36;5.95;73.38
75961;SHT30;64644;48.914;2.254;2022-12-05T06:23:02;5.95;73.63
75961;SHT30;64644;48.914;2.254;2022-12-05T06:25:27;5.97;73.34
75961;SHT30;64644;48.914;2.254;2022-12-05T06:27:53;5.94;73.40
75961;SHT30;64644;48.914;2.254;2022-12-05T06:30:18;5.91;73.57
75961;SHT30;64644;48.914;2.254;2022-12-05T06:32:44;5.95;73.36
75961;SHT30;64644;48.914;2.254;2022-12-05T06:35:09;5.95;73.18
75961;SHT30;64644;48.914;2.254;2022-12-05T06:37:44;5.97;73.27
75961;SHT30;64644;48.914;2.254;2022-12-05T06:40:11;5.98;73.32
75961;SHT30;64644;48.914;2.254;2022-12-05T06:42:37;5.99;73.37
75961;SHT30;64644;48.914;2.254;2022-12-05T06:45:03;6.01;73.35
75961;SHT30;64644;48.914;2.254;2022-12-05T06:47:29;6.04;73.52
75961;SHT30;64644;48.914;2.254;2022-12-05T06:49:54;6.04;73.55
75961;SHT30;64644;48.914;2.254;2022-12-05T06:52:20;5.99;73.53
75961;SHT30;64644;48.914;2.254;2022-12-05T06:54:45;5.97;73.41
75961;SHT30;64644;48.914;2.254;2022-12-05T06:57:11;5.95;73.46
75961;SHT30;64644;48.914;2.254;2022-12-05T06:59:36;5.93;73.45
75961;SHT30;64644;48.914;2.254;2022-12-05T07:02:02;5.91;73.39
75961;SHT30;64644;48.914;2.254;2022-12-05T07:04:27;5.90;73.54
75961;SHT30;64644;48.914;2.254;2022-12-05T07:06:54;5.87;73.35
75961;SHT30;64644;48.914;2.254;2022-12-05T07:09:22;5.83;73.54
75961;SHT30;64644;48.914;2.254;2022-12-05T07:12:08;5.86;73.68
75961;SHT30;64644;48.914;2.254;2022-12-05T07:14:33;5.84;73.40
75961;SHT30;64644;48.914;2.254;2022-12-05T07:16:58;5.83;73.50
75961;SHT30;64644;48.914;2.254;2022-12-05T07:19:24;5.78;73.50
75961;SHT30;64644;48.914;2.254;2022-12-05T07:21:49;5.74;73.72
75961;SHT30;64644;48.914;2.254;2022-12-05T07:24:15;5.75;73.71
75961;SHT30;64644;48.914;2.254;2022-12-05T07:26:40;5.78;73.89
75961;SHT30;64644;48.914;2.254;2022-12-05T07:29:05;5.81;73.78
75961;SHT30;64644;48.914;2.254;2022-12-05T07:31:31;5.87;73.54
75961;SHT30;64644;48.914;2.254;2022-12-05T07:33:58;5.90;73.63
75961;SHT30;64644;48.914;2.254;2022-12-05T07:36:23;5.88;73.59
75961;SHT30;64644;48.914;2.254;2022-12-05T07:38:54;5.91;73.67
75961;SHT30;64644;48.914;2.254;2022-12-05T07:41:31;5.91;73.54
75961;SHT30;64644;48.914;2.254;2022-12-05T07:43:58;5.90;73.65
75961;SHT30;64644;48.914;2.254;2022-12-05T07:46:25;5.93;73.44
75961;SHT30;64644;48.914;2.254;2022-12-05T07:48:51;5.88;73.45
75961;SHT30;64644;48.914;2.254;2022-12-05T07:51:17;5.86;73.50
75961;SHT30;64644;48.914;2.254;2022-12-05T07:53:43;5.84;73.51
75961;SHT30;64644;48.914;2.254;2022-12-05T07:56:11;5.87;73.14
75961;SHT30;64644;48.914;2.254;2022-12-05T07:58:39;5.88;73.22
75961;SHT30;64644;48.914;2.254;2022-12-05T08:01:11;5.86;73.35
75961;SHT30;64644;48.914;2.254;2022-12-05T08:03:37;5.90;73.38
75961;SHT30;64644;48.914;2.254;2022-12-05T08:06:05;5.88;73.26
75961;SHT30;64644;48.914;2.254;2022-12-05T08:08:30;5.87;73.33
75961;SHT30;64644;48.914;2.254;2022-12-05T08:10:56;5.84;73.36
75961;SHT30;64644;48.914;2.254;2022-12-05T08:13:28;5.90;73.58
75961;SHT30;64644;48.914;2.254;2022-12-05T08:15:53;5.86;73.37
75961;SHT30;64644;48.914;2.254;2022-12-05T08:18:18;5.83;73.55
75961;SHT30;64644;48.914;2.254;2022-12-05T08:20:44;5.81;73.61
75961;SHT30;64644;48.914;2.254;2022-12-05T08:23:09;5.78;73.67
75961;SHT30;64644;48.914;2.254;2022-12-05T08:25:34;5.78;73.84
75961;SHT30;64644;48.914;2.254;2022-12-05T08:28:00;5.80;73.86
75961;SHT30;64644;48.914;2.254;2022-12-05T08:30:25;5.80;73.96
75961;SHT30;64644;48.914;2.254;2022-12-05T08:32:50;5.78;73.92
75961;SHT30;64644;48.914;2.254;2022-12-05T08:35:16;5.83;73.80
75961;SHT30;64644;48.914;2.254;2022-12-05T08:37:41;5.81;73.72
75961;SHT30;64644;48.914;2.254;2022-12-05T08:40:07;5.78;73.58
75961;SHT30;64644;48.914;2.254;2022-12-05T08:42:32;5.77;73.68
75961;SHT30;64644;48.914;2.254;2022-12-05T08:44:57;5.74;73.98
75961;SHT30;64644;48.914;2.254;2022-12-05T08:47:23;5.71;73.83
75961;SHT30;64644;48.914;2.254;2022-12-05T08:49:48;5.67;73.87
75961;SHT30;64644;48.914;2.254;2022-12-05T08:52:13;5.66;73.64
75961;SHT30;64644;48.914;2.254;2022-12-05T08:54:39;5.64;73.99
75961;SHT30;64644;48.914;2.254;2022-12-05T08:57:04;5.63;73.87
75961;SHT30;64644;48.914;2.254;2022-12-05T08:59:29;5.60;74.06
75961;SHT30;64644;48.914;2.254;2022-12-05T09:01:55;5.61;73.94
75961;SHT30;64644;48.914;2.254;2022-12-05T09:04:20;5.63;74.07
75961;SHT30;64644;48.914;2.254;2022-12-05T09:06:46;5.60;74.21
75961;SHT30;64644;48.914;2.254;2022-12-05T09:09:11;5.63;74.04
75961;SHT30;64644;48.914;2.254;2022-12-05T09:11:40;5.64;74.07
75961;SHT30;64644;48.914;2.254;2022-12-05T09:14:08;5.66;74.15
75961;SHT30;64644;48.914;2.254;2022-12-05T09:16:35;5.66;74.10
75961;SHT30;64644;48.914;2.254;2022-12-05T09:19:01;5.66;74.20
75961;SHT30;64644;48.914;2.254;2022-12-05T09:21:28;5.70;74.20
75961;SHT30;64644;48.914;2.254;2022-12-05T09:23:54;5.73;74.18
75961;SHT30;64644;48.914;2.254;2022-12-05T09:26:23;5.75;74.16
75961;SHT30;64644;48.914;2.254;2022-12-05T09:28:50;5.75;74.00
75961;SHT30;64644;48.914;2.254;2022-12-05T09:31:21;5.73;73.95
75961;SHT30;64644;48.914;2.254;2022-12-05T09:33:47;5.75;74.14
75961;SHT30;64644;48.914;2.254;2022-12-05T09:36:19;5.74;74.27
75961;SHT30;64644;48.914;2.254;2022-12-05T09:38:45;5.74;74.13
75961;SHT30;64644;48.914;2.254;2022-12-05T09:41:54;5.77;74.17
75961;SHT30;64644;48.914;2.254;2022-12-05T09:44:50;5.80;74.21
75961;SHT30;64644;48.914;2.254;2022-12-05T09:49:56;5.87;74.11
75961;SHT30;64644;48.914;2.254;2022-12-05T09:52:27;5.88;74.11
75961;SHT30;64644;48.914;2.254;2022-12-05T09:54:53;5.93;74.19
75961;SHT30;64644;48.914;2.254;2022-12-05T09:57:41;5.93;74.06
75961;SHT30;64644;48.914;2.254;2022-12-05T10:00:09;5.97;74.09
75961;SHT30;64644;48.914;2.254;2022-12-05T10:08:45;6.11;73.67
75961;SHT30;64644;48.914;2.254;2022-12-05T10:11:33;6.11;73.44
75961;SHT30;64644;48.914;2.254;2022-12-05T10:14:29;6.16;73.56
75961;SHT30;64644;48.914;2.254;2022-12-05T10:17:07;6.09;73.62
75961;SHT30;64644;48.914;2.254;2022-12-05T10:19:40;6.11;73.30
75961;SHT30;64644;48.914;2.254;2022-12-05T10:22:17;6.08;73.31
75961;SHT30;64644;48.914;2.254;2022-12-05T10:25:00;6.05;73.35
75961;SHT30;64644;48.914;2.254;2022-12-05T10:27:35;6.05;73.31
75961;SHT30;64644;48.914;2.254;2022-12-05T10:30:04;6.11;73.52
75961;SHT30;64644;48.914;2.254;2022-12-05T10:33:00;6.15;73.28
75961;SHT30;64644;48.914;2.254;2022-12-05T10:35:33;6.22;73.42
75961;SHT30;64644;48.914;2.254;2022-12-05T10:38:03;6.23;73.48
75961;SHT30;64644;48.914;2.254;2022-12-05T10:40:35;6.25;73.38
75961;SHT30;64644;48.914;2.254;2022-12-05T10:43:04;6.29;73.16
75961;SHT30;64644;48.914;2.254;2022-12-05T10:45:30;6.33;73.12
75961;SHT30;64644;48.914;2.254;2022-12-05T10:47:56;6.34;73.15
75961;SHT30;64644;48.914;2.254;2022-12-05T10:50:35;6.37;73.22
75961;SHT30;64644;48.914;2.254;2022-12-05T10:53:02;6.34;73.08
75961;SHT30;64644;48.914;2.254;2022-12-05T10:55:35;6.32;73.05
75961;SHT30;64644;48.914;2.254;2022-12-05T10:58:24;6.33;73.08
75961;SHT30;64644;48.914;2.254;2022-12-05T11:01:16;6.29;73.17
75961;SHT30;64644;48.914;2.254;2022-12-05T11:03:42;6.28;72.94
75961;SHT30;64644;48.914;2.254;2022-12-05T11:06:14;6.26;73.00
75961;SHT30;64644;48.914;2.254;2022-12-05T11:08:40;6.23;72.65
75961;SHT30;64644;48.914;2.254;2022-12-05T11:11:27;6.23;72.71
75961;SHT30;64644;48.914;2.254;2022-12-05T11:14:03;6.23;72.65
75961;SHT30;64644;48.914;2.254;2022-12-05T11:16:32;6.29;72.77
75961;SHT30;64644;48.914;2.254;2022-12-05T11:19:17;6.34;72.69
75961;SHT30;64644;48.914;2.254;2022-12-05T11:21:43;6.39;72.62
75961;SHT30;64644;48.914;2.254;2022-12-05T11:24:36;6.37;72.61
75961;SHT30;64644;48.914;2.254;2022-12-05T11:29:45;6.39;72.48
75961;SHT30;64644;48.914;2.254;2022-12-05T11:32:19;6.39;72.76
75961;SHT30;64644;48.914;2.254;2022-12-05T11:35:08;6.43;72.71
75961;SHT30;64644;48.914;2.254;2022-12-05T11:40:24;6.46;72.50
75961;SHT30;64644;48.914;2.254;2022-12-05T11:43:15;6.44;72.61
75961;SHT30;64644;48.914;2.254;2022-12-05T11:54:29;6.50;72.44
75961;SHT30;64644;48.914;2.254;2022-12-05T11:57:07;6.51;72.51
75961;SHT30;64644;48.914;2.254;2022-12-05T12:04:48;6.54;72.25
75961;SHT30;64644;48.914;2.254;2022-12-05T12:11:15;6.63;72.35
75961;SHT30;64644;48.914;2.254;2022-12-05T12:16:14;6.68;72.57
75961;SHT30;64644;48.914;2.254;2022-12-05T12:33:43;6.83;71.49
75961;SHT30;64644;48.914;2.254;2022-12-05T12:45:01;6.88;70.90
75961;SHT30;64644;48.914;2.254;2022-12-05T13:03:09;6.87;71.37
75961;SHT30;64644;48.914;2.254;2022-12-05T13:06:01;6.87;71.22
75961;SHT30;64644;48.914;2.254;2022-12-05T13:11:13;6.87;71.55
75961;SHT30;64644;48.914;2.254;2022-12-05T13:13:45;6.88;71.54
75961;SHT30;64644;48.914;2.254;2022-12-05T13:16:20;6.94;71.19
75961;SHT30;64644;48.914;2.254;2022-12-05T13:18:47;6.91;71.30
75961;SHT30;64644;48.914;2.254;2022-12-05T13:21:13;6.95;71.40
75961;SHT30;64644;48.914;2.254;2022-12-05T13:23:52;6.96;71.17
75961;SHT30;64644;48.914;2.254;2022-12-05T13:26:20;6.96;71.22
75961;SHT30;64644;48.914;2.254;2022-12-05T13:31:13;7.01;71.26
75961;SHT30;64644;48.914;2.254;2022-12-05T13:33:46;7.02;71.36
75961;SHT30;64644;48.914;2.254;2022-12-05T13:39:26;7.02;71.03
75961;SHT30;64644;48.914;2.254;2022-12-05T13:42:39;7.02;70.66
75961;SHT30;64644;48.914;2.254;2022-12-05T13:45:13;7.02;70.40
75961;SHT30;64644;48.914;2.254;2022-12-05T13:53:02;6.96;70.29
75961;SHT30;64644;48.914;2.254;2022-12-05T13:55:33;6.95;70.68
75961;SHT30;64644;48.914;2.254;2022-12-05T13:58:02;6.98;70.76
75961;SHT30;64644;48.914;2.254;2022-12-05T14:00:29;6.95;70.84
75961;SHT30;64644;48.914;2.254;2022-12-05T14:02:57;6.95;70.75
75961;SHT30;64644;48.914;2.254;2022-12-05T14:07:51;6.98;70.36
75961;SHT30;64644;48.914;2.254;2022-12-05T14:12:57;6.92;70.05
75961;SHT30;64644;48.914;2.254;2022-12-05T14:23:18;6.95;70.79
75961;SHT30;64644;48.914;2.254;2022-12-05T14:26:21;6.95;70.81
75961;SHT30;64644;48.914;2.254;2022-12-05T14:31:42;6.98;70.50
75961;SHT30;64644;48.914;2.254;2022-12-05T14:34:22;7.01;70.27
75961;SHT30;64644;48.914;2.254;2022-12-05T14:36:55;7.02;70.30
75961;SHT30;64644;48.914;2.254;2022-12-05T14:39:34;7.01;70.19
75961;SHT30;64644;48.914;2.254;2022-12-05T14:42:04;7.02;70.35
75961;SHT30;64644;48.914;2.254;2022-12-05T14:44:32;6.99;70.74
75961;SHT30;64644;48.914;2.254;2022-12-05T14:47:02;7.02;70.53
75961;SHT30;64644;48.914;2.254;2022-12-05T14:49:52;7.01;70.36
75961;SHT30;64644;48.914;2.254;2022-12-05T14:52:21;6.99;70.70
75961;SHT30;64644;48.914;2.254;2022-12-05T14:54:49;7.04;70.87
75961;SHT30;64644;48.914;2.254;2022-12-05T14:57:16;7.02;70.79
75961;SHT30;64644;48.914;2.254;2022-12-05T15:02:32;7.01;71.05
75961;SHT30;64644;48.914;2.254;2022-12-05T15:05:21;7.04;70.88
75961;SHT30;64644;48.914;2.254;2022-12-05T15:07:49;6.99;70.64
75961;SHT30;64644;48.914;2.254;2022-12-05T15:10:15;6.99;70.66
75961;SHT30;64644;48.914;2.254;2022-12-05T15:15:23;7.04;70.90
75961;SHT30;64644;48.914;2.254;2022-12-05T15:17:57;7.04;71.11
75961;SHT30;64644;48.914;2.254;2022-12-05T15:20:36;7.01;71.11
75961;SHT30;64644;48.914;2.254;2022-12-05T15:34:49;6.98;71.02
75961;SHT30;64644;48.914;2.254;2022-12-05T15:40:32;6.96;70.95
75961;SHT30;64644;48.914;2.254;2022-12-05T15:43:25;6.99;70.91
75961;SHT30;64644;48.914;2.254;2022-12-05T15:46:14;7.01;70.98
75961;SHT30;64644;48.914;2.254;2022-12-05T15:48:44;7.01;70.99
75961;SHT30;64644;48.914;2.254;2022-12-05T15:51:09;6.99;70.88
75961;SHT30;64644;48.914;2.254;2022-12-05T15:53:50;6.96;70.99
75961;SHT30;64644;48.914;2.254;2022-12-05T15:56:35;6.96;71.10
75961;SHT30;64644;48.914;2.254;2022-12-05T15:59:23;6.94;71.06
75961;SHT30;64644;48.914;2.254;2022-12-05T16:01:58;6.98;70.87
75961;SHT30;64644;48.914;2.254;2022-12-05T16:07:10;6.98;70.88
75961;SHT30;64644;48.914;2.254;2022-12-05T16:09:39;7.01;70.93
75961;SHT30;64644;48.914;2.254;2022-12-05T16:12:18;7.05;70.53
75961;SHT30;64644;48.914;2.254;2022-12-05T16:14:49;7.04;70.93
75961;SHT30;64644;48.914;2.254;2022-12-05T16:17:15;7.05;70.92
75961;SHT30;64644;48.914;2.254;2022-12-05T16:19:41;7.06;70.93
75961;SHT30;64644;48.914;2.254;2022-12-05T16:24:54;7.02;71.21
75961;SHT30;64644;48.914;2.254;2022-12-05T16:27:36;7.04;71.24
75961;SHT30;64644;48.914;2.254;2022-12-05T16:30:16;7.04;71.23
75961;SHT30;64644;48.914;2.254;2022-12-05T16:32:43;7.05;71.17
75961;SHT30;64644;48.914;2.254;2022-12-05T16:35:43;7.06;71.14
75961;SHT30;64644;48.914;2.254;2022-12-05T16:49:15;7.08;71.10
75961;SHT30;64644;48.914;2.254;2022-12-05T16:51:43;7.05;71.11
75961;SHT30;64644;48.914;2.254;2022-12-05T16:54:09;7.05;71.00
75961;SHT30;64644;48.914;2.254;2022-12-05T16:56:35;7.05;70.96
75961;SHT30;64644;48.914;2.254;2022-12-05T16:59:04;7.05;71.11
75961;SHT30;64644;48.914;2.254;2022-12-05T17:01:30;7.06;71.05
75961;SHT30;64644;48.914;2.254;2022-12-05T17:03:56;7.04;71.25
75961;SHT30;64644;48.914;2.254;2022-12-05T17:06:23;7.06;70.95
75961;SHT30;64644;48.914;2.254;2022-12-05T17:08:50;7.06;71.03
75961;SHT30;64644;48.914;2.254;2022-12-05T17:11:20;7.08;70.99
75961;SHT30;64644;48.914;2.254;2022-12-05T17:13:46;7.09;71.17
75961;SHT30;64644;48.914;2.254;2022-12-05T17:16:13;7.06;71.14
75961;SHT30;64644;48.914;2.254;2022-12-05T17:18:39;7.08;71.04
75961;SHT30;64644;48.914;2.254;2022-12-05T17:21:05;7.05;71.03
75961;SHT30;64644;48.914;2.254;2022-12-05T17:23:30;7.05;70.91
75961;SHT30;64644;48.914;2.254;2022-12-05T17:25:57;7.05;71.01
75961;SHT30;64644;48.914;2.254;2022-12-05T17:28:24;7.08;71.05
75961;SHT30;64644;48.914;2.254;2022-12-05T17:30:50;7.09;71.06
75961;SHT30;64644;48.914;2.254;2022-12-05T17:33:18;7.09;70.73
75961;SHT30;64644;48.914;2.254;2022-12-05T17:35:43;7.08;70.87
75961;SHT30;64644;48.914;2.254;2022-12-05T17:38:09;7.06;70.92
75961;SHT30;64644;48.914;2.254;2022-12-05T17:40:36;7.11;70.87
75961;SHT30;64644;48.914;2.254;2022-12-05T17:43:02;7.08;70.86
75961;SHT30;64644;48.914;2.254;2022-12-05T17:45:27;7.06;70.92
75961;SHT30;64644;48.914;2.254;2022-12-05T17:47:54;7.06;70.90
75961;SHT30;64644;48.914;2.254;2022-12-05T17:50:21;7.08;70.62
75961;SHT30;64644;48.914;2.254;2022-12-05T17:52:47;7.06;70.76
75961;SHT30;64644;48.914;2.254;2022-12-05T17:55:25;7.09;70.96
75961;SHT30;64644;48.914;2.254;2022-12-05T17:57:51;7.09;70.92
75961;SHT30;64644;48.914;2.254;2022-12-05T18:00:18;7.09;70.95
75961;SHT30;64644;48.914;2.254;2022-12-05T18:02:44;7.09;70.98
75961;SHT30;64644;48.914;2.254;2022-12-05T18:05:12;7.11;71.00
75961;SHT30;64644;48.914;2.254;2022-12-05T18:07:38;7.09;71.10
75961;SHT30;64644;48.914;2.254;2022-12-05T18:10:06;7.09;71.01
75961;SHT30;64644;48.914;2.254;2022-12-05T18:12:32;7.11;71.18
75961;SHT30;64644;48.914;2.254;2022-12-05T18:14:57;7.11;71.24
75961;SHT30;64644;48.914;2.254;2022-12-05T18:17:23;7.12;71.15
75961;SHT30;64644;48.914;2.254;2022-12-05T18:19:49;7.12;71.20
75961;SHT30;64644;48.914;2.254;2022-12-05T18:22:15;7.11;71.23
75961;SHT30;64644;48.914;2.254;2022-12-05T18:24:40;7.12;71.10
75961;SHT30;64644;48.914;2.254;2022-12-05T18:27:06;7.13;71.18
75961;SHT30;64644;48.914;2.254;2022-12-05T18:29:31;7.13;71.20
75961;SHT30;64644;48.914;2.254;2022-12-05T18:31:56;7.16;71.28
75961;SHT30;64644;48.914;2.254;2022-12-05T18:34:22;7.16;71.08
75961;SHT30;64644;48.914;2.254;2022-12-05T18:36:47;7.13;71.17
75961;SHT30;64644;48.914;2.254;2022-12-05T18:39:13;7.13;71.20
75961;SHT30;64644;48.914;2.254;2022-12-05T18:41:39;7.12;71.05
75961;SHT30;64644;48.914;2.254;2022-12-05T18:44:05;7.13;71.22
75961;SHT30;64644;48.914;2.254;2022-12-05T18:46:32;7.15;71.27
75961;SHT30;64644;48.914;2.254;2022-12-05T18:48:57;7.13;71.19
75961;SHT30;64644;48.914;2.254;2022-12-05T18:51:23;7.13;71.25
75961;SHT30;64644;48.914;2.254;2022-12-05T18:53:50;7.12;71.14
75961;SHT30;64644;48.914;2.254;2022-12-05T18:56:21;7.11;71.12